sensor_id;sensor_type;location;lat;lon;timestamp;temperature;humidity
12470;DHT22;36499;46.484;13.832;2022-07-23T00:01:38;18.20;99.90
12470;DHT22;36499;46.484;13.832;2022-07-23T00:04:08;18.10;99.90
12470;DHT22;36499;46.484;13.832;2022-07-23T00:06:35;18.10;99.90
12470;DHT22;36499;46.484;13.832;2022-07-23T00:09:02;18.10;99.90
12470;DHT22;36499;46.484;13.832;2022-07-23T00:11:29;18.10;99.90
12470;DHT22;36499;46.484;13.832;2022-07-23T00:13:56;18.00;99.90
12470;DHT22;36499;46.484;13.832;2022-07-23T00:16:24;18.00;99.90
12470;DHT22;36499;46.484;13.832;2022-07-23T00:18:51;18.00;99.90
12470;DHT22;36499;46.484;13.832;2022-07-23T00:21:19;18.00;99.90
12470;DHT22;36499;46.484;13.832;2022-07-23T00:23:46;18.00;99.90
12470;DHT22;36499;46.484;13.832;2022-07-23T00:26:13;18.00;99.90
12470;DHT22;36499;46.484;13.832;2022-07-23T00:28:41;18.10;99.90
12470;DHT22;36499;46.484;13.832;2022-07-23T00:31:08;18.10;99.90
12470;DHT22;36499;46.484;13.832;2022-07-23T00:33:35;18.00;99.90
12470;DHT22;36499;46.484;13.832;2022-07-23T00:36:03;17.90;99.90
12470;DHT22;36499;46.484;13.832;2022-07-23T00:38:32;17.80;99.90
12470;DHT22;36499;46.484;13.832;2022-07-23T00:40:59;17.60;99.90
12470;DHT22;36499;46.484;13.832;2022-07-23T00:43:26;17.60;99.90
12470;DHT22;36499;46.484;13.832;2022-07-23T00:45:53;17.50;99.90
12470;DHT22;36499;46.484;13.832;2022-07-23T00:48:20;17.60;99.90
12470;DHT22;36499;46.484;13.832;2022-07-23T00:50:48;17.60;99.90
12470;DHT22;36499;46.484;13.832;2022-07-23T00:53:15;17.70;99.90
12470;DHT22;36499;46.484;13.832;2022-07-23T00:55:44;17.80;99.90
12470;DHT22;36499;46.484;13.832;2022-07-23T00:58:11;17.90;99.90
12470;DHT22;36499;46.484;13.832;2022-07-23T01:00:39;18.00;99.90
12470;DHT22;36499;46.484;13.832;2022-07-23T01:03:06;18.00;99.90
12470;DHT22;36499;46.484;13.832;2022-07-23T01:05:34;18.00;99.90
12470;DHT22;36499;46.484;13.832;2022-07-23T01:08:01;17.90;99.90
12470;DHT22;36499;46.484;13.832;2022-07-23T01:10:28;17.80;99.90
12470;DHT22;36499;46.484;13.832;2022-07-23T01:13:02;17.70;99.90
12470;DHT22;36499;46.484;13.832;2022-07-23T01:15:31;17.70;99.90
12470;DHT22;36499;46.484;13.832;2022-07-23T01:17:58;17.70;99.90
12470;DHT22;36499;46.484;13.832;2022-07-23T01:20:26;17.70;99.90
12470;DHT22;36499;46.484;13.832;2022-07-23T01:22:55;17.70;99.90
12470;DHT22;36499;46.484;13.832;2022-07-23T01:25:22;17.80;99.90
12470;DHT22;36499;46.484;13.832;2022-07-23T01:27:51;17.80;99.90
12470;DHT22;36499;46.484;13.832;2022-07-23T01:30:19;17.80;99.90
12470;DHT22;36499;46.484;13.832;2022-07-23T01:32:46;17.70;99.90
12470;DHT22;36499;46.484;13.832;2022-07-23T01:35:13;17.70;99.90
12470;DHT22;36499;46.484;13.832;2022-07-23T01:37:40;17.70;99.90
12470;DHT22;36499;46.484;13.832;2022-07-23T01:40:09;17.60;99.90
12470;DHT22;36499;46.484;13.832;2022-07-23T01:42:36;17.60;99.90
12470;DHT22;36499;46.484;13.832;2022-07-23T01:45:05;17.60;99.90
12470;DHT22;36499;46.484;13.832;2022-07-23T01:47:32;17.50;99.90
12470;DHT22;36499;46.484;13.832;2022-07-23T01:50:00;17.50;99.90
12470;DHT22;36499;46.484;13.832;2022-07-23T01:52:27;17.50;99.90
12470;DHT22;36499;46.484;13.832;2022-07-23T01:54:54;17.50;99.90
12470;DHT22;36499;46.484;13.832;2022-07-23T01:57:22;17.60;99.90
12470;DHT22;36499;46.484;13.832;2022-07-23T01:59:49;17.60;99.90
12470;DHT22;36499;46.484;13.832;2022-07-23T02:02:17;17.60;99.90
12470;DHT22;36499;46.484;13.832;2022-07-23T02:04:44;17.50;99.90
12470;DHT22;36499;46.484;13.832;2022-07-23T02:07:11;17.50;99.90
12470;DHT22;36499;46.484;13.832;2022-07-23T02:09:38;17.50;99.90
12470;DHT22;36499;46.484;13.832;2022-07-23T02:12:05;17.40;99.90
12470;DHT22;36499;46.484;13.832;2022-07-23T02:14:34;17.40;99.90
12470;DHT22;36499;46.484;13.832;2022-07-23T02:17:01;17.40;99.90
12470;DHT22;36499;46.484;13.832;2022-07-23T02:19:28;17.40;99.90
12470;DHT22;36499;46.484;13.832;2022-07-23T02:21:55;17.40;99.90
12470;DHT22;36499;46.484;13.832;2022-07-23T02:24:23;17.40;99.90
12470;DHT22;36499;46.484;13.832;2022-07-23T02:26:50;17.40;99.90
12470;DHT22;36499;46.484;13.832;2022-07-23T02:29:17;17.30;99.90
12470;DHT22;36499;46.484;13.832;2022-07-23T02:31:45;17.20;99.90
12470;DHT22;36499;46.484;13.832;2022-07-23T02:34:13;17.20;99.90
12470;DHT22;36499;46.484;13.832;2022-07-23T02:36:40;17.30;99.90
12470;DHT22;36499;46.484;13.832;2022-07-23T02:39:07;17.30;99.90
12470;DHT22;36499;46.484;13.832;2022-07-23T02:41:34;17.40;99.90
12470;DHT22;36499;46.484;13.832;2022-07-23T02:44:01;17.40;99.90
12470;DHT22;36499;46.484;13.832;2022-07-23T02:46:29;17.50;99.90
12470;DHT22;36499;46.484;13.832;2022-07-23T02:48:57;17.40;99.90
12470;DHT22;36499;46.484;13.832;2022-07-23T02:51:24;17.40;99.90
12470;DHT22;36499;46.484;13.832;2022-07-23T02:53:51;17.40;99.90
12470;DHT22;36499;46.484;13.832;2022-07-23T02:56:18;17.40;99.90
12470;DHT22;36499;46.484;13.832;2022-07-23T02:58:45;17.40;99.90
12470;DHT22;36499;46.484;13.832;2022-07-23T03:01:13;17.40;99.90
12470;DHT22;36499;46.484;13.832;2022-07-23T03:03:40;17.40;99.90
12470;DHT22;36499;46.484;13.832;2022-07-23T03:06:08;17.40;99.90
12470;DHT22;36499;46.484;13.832;2022-07-23T03:08:38;17.40;99.90
12470;DHT22;36499;46.484;13.832;2022-07-23T03:11:10;17.30;99.90
12470;DHT22;36499;46.484;13.832;2022-07-23T03:13:38;17.20;99.90
12470;DHT22;36499;46.484;13.832;2022-07-23T03:16:06;17.20;99.90
12470;DHT22;36499;46.484;13.832;2022-07-23T03:18:34;17.10;99.90
12470;DHT22;36499;46.484;13.832;2022-07-23T03:21:01;17.10;99.90
12470;DHT22;36499;46.484;13.832;2022-07-23T03:23:30;17.10;99.90
12470;DHT22;36499;46.484;13.832;2022-07-23T03:25:57;17.10;99.90
12470;DHT22;36499;46.484;13.832;2022-07-23T03:28:24;17.10;99.90
12470;DHT22;36499;46.484;13.832;2022-07-23T03:30:51;17.10;99.90
12470;DHT22;36499;46.484;13.832;2022-07-23T03:33:20;17.30;99.90
12470;DHT22;36499;46.484;13.832;2022-07-23T03:35:48;17.40;99.90
12470;DHT22;36499;46.484;13.832;2022-07-23T03:38:15;17.30;99.90
12470;DHT22;36499;46.484;13.832;2022-07-23T03:40:44;17.30;99.90
12470;DHT22;36499;46.484;13.832;2022-07-23T03:43:11;17.20;99.90
12470;DHT22;36499;46.484;13.832;2022-07-23T03:45:38;17.10;99.90
12470;DHT22;36499;46.484;13.832;2022-07-23T03:48:06;17.10;99.90
12470;DHT22;36499;46.484;13.832;2022-07-23T03:50:33;17.20;99.90
12470;DHT22;36499;46.484;13.832;2022-07-23T03:53:00;17.20;99.90
12470;DHT22;36499;46.484;13.832;2022-07-23T03:55:27;17.30;99.90
12470;DHT22;36499;46.484;13.832;2022-07-23T03:57:56;17.30;99.90
12470;DHT22;36499;46.484;13.832;2022-07-23T04:00:23;17.40;99.90
12470;DHT22;36499;46.484;13.832;2022-07-23T04:02:51;17.30;99.90
12470;DHT22;36499;46.484;13.832;2022-07-23T04:05:18;17.30;99.90
12470;DHT22;36499;46.484;13.832;2022-07-23T04:07:45;17.20;99.90
12470;DHT22;36499;46.484;13.832;2022-07-23T04:10:12;17.20;99.90
12470;DHT22;36499;46.484;13.832;2022-07-23T04:12:39;17.20;99.90
12470;DHT22;36499;46.484;13.832;2022-07-23T04:15:09;17.20;99.90
12470;DHT22;36499;46.484;13.832;2022-07-23T04:17:36;17.30;99.90
12470;DHT22;36499;46.484;13.832;2022-07-23T04:20:04;17.30;99.90
12470;DHT22;36499;46.484;13.832;2022-07-23T04:22:32;17.30;99.90
12470;DHT22;36499;46.484;13.832;2022-07-23T04:24:59;17.40;99.90
12470;DHT22;36499;46.484;13.832;2022-07-23T04:27:26;17.40;99.90
12470;DHT22;36499;46.484;13.832;2022-07-23T04:29:53;17.50;99.90
12470;DHT22;36499;46.484;13.832;2022-07-23T04:32:22;17.50;99.90
12470;DHT22;36499;46.484;13.832;2022-07-23T04:34:49;17.60;99.90
12470;DHT22;36499;46.484;13.832;2022-07-23T04:37:17;17.50;99.90
12470;DHT22;36499;46.484;13.832;2022-07-23T04:39:44;17.50;99.90
12470;DHT22;36499;46.484;13.832;2022-07-23T04:42:11;17.50;99.90
12470;DHT22;36499;46.484;13.832;2022-07-23T04:44:38;17.60;99.90
12470;DHT22;36499;46.484;13.832;2022-07-23T04:47:05;17.60;99.90
12470;DHT22;36499;46.484;13.832;2022-07-23T04:49:34;17.60;99.90
12470;DHT22;36499;46.484;13.832;2022-07-23T04:52:01;17.60;99.90
12470;DHT22;36499;46.484;13.832;2022-07-23T04:54:28;17.80;99.90
12470;DHT22;36499;46.484;13.832;2022-07-23T04:56:55;17.90;99.90
12470;DHT22;36499;46.484;13.832;2022-07-23T04:59:23;17.90;99.90
12470;DHT22;36499;46.484;13.832;2022-07-23T05:01:50;17.90;99.90
12470;DHT22;36499;46.484;13.832;2022-07-23T05:04:17;17.90;99.90
12470;DHT22;36499;46.484;13.832;2022-07-23T05:06:45;17.90;99.90
12470;DHT22;36499;46.484;13.832;2022-07-23T05:09:12;17.90;99.90
12470;DHT22;36499;46.484;13.832;2022-07-23T05:11:40;18.00;99.90
12470;DHT22;36499;46.484;13.832;2022-07-23T05:14:07;18.10;99.90
12470;DHT22;36499;46.484;13.832;2022-07-23T05:16:34;18.10;99.90
12470;DHT22;36499;46.484;13.832;2022-07-23T05:19:01;18.20;99.90
12470;DHT22;36499;46.484;13.832;2022-07-23T05:21:28;18.40;99.90
12470;DHT22;36499;46.484;13.832;2022-07-23T05:23:56;18.50;99.90
12470;DHT22;36499;46.484;13.832;2022-07-23T05:26:23;18.60;99.90
12470;DHT22;36499;46.484;13.832;2022-07-23T05:28:51;18.70;99.90
12470;DHT22;36499;46.484;13.832;2022-07-23T05:31:18;18.80;99.90
12470;DHT22;36499;46.484;13.832;2022-07-23T05:33:45;18.90;99.90
12470;DHT22;36499;46.484;13.832;2022-07-23T05:36:13;19.00;99.90
12470;DHT22;36499;46.484;13.832;2022-07-23T05:38:40;19.10;99.90
12470;DHT22;36499;46.484;13.832;2022-07-23T05:41:08;19.30;99.90
12470;DHT22;36499;46.484;13.832;2022-07-23T05:43:35;19.40;99.90
12470;DHT22;36499;46.484;13.832;2022-07-23T05:46:03;19.60;99.90
12470;DHT22;36499;46.484;13.832;2022-07-23T05:48:30;19.80;99.90
12470;DHT22;36499;46.484;13.832;2022-07-23T05:54:45;20.20;99.90
12470;DHT22;36499;46.484;13.832;2022-07-23T05:57:14;20.30;99.90
12470;DHT22;36499;46.484;13.832;2022-07-23T05:59:41;20.50;99.90
12470;DHT22;36499;46.484;13.832;2022-07-23T06:02:08;20.70;99.90
12470;DHT22;36499;46.484;13.832;2022-07-23T06:04:35;20.80;99.90
12470;DHT22;36499;46.484;13.832;2022-07-23T06:07:02;20.90;99.90
12470;DHT22;36499;46.484;13.832;2022-07-23T06:09:29;21.00;99.90
12470;DHT22;36499;46.484;13.832;2022-07-23T06:11:56;21.20;99.90
12470;DHT22;36499;46.484;13.832;2022-07-23T06:14:25;21.30;99.90
12470;DHT22;36499;46.484;13.832;2022-07-23T06:16:52;21.40;99.90
12470;DHT22;36499;46.484;13.832;2022-07-23T06:19:19;21.50;99.90
12470;DHT22;36499;46.484;13.832;2022-07-23T06:21:46;21.60;99.90
12470;DHT22;36499;46.484;13.832;2022-07-23T06:24:13;21.70;99.90
12470;DHT22;36499;46.484;13.832;2022-07-23T06:26:41;21.80;99.90
12470;DHT22;36499;46.484;13.832;2022-07-23T06:29:08;22.00;99.90
12470;DHT22;36499;46.484;13.832;2022-07-23T06:31:36;22.20;99.90
12470;DHT22;36499;46.484;13.832;2022-07-23T06:34:04;22.30;99.90
12470;DHT22;36499;46.484;13.832;2022-07-23T06:36:31;22.50;99.90
12470;DHT22;36499;46.484;13.832;2022-07-23T06:38:58;22.60;99.90
12470;DHT22;36499;46.484;13.832;2022-07-23T06:41:25;22.70;99.90
12470;DHT22;36499;46.484;13.832;2022-07-23T06:43:52;22.80;99.90
12470;DHT22;36499;46.484;13.832;2022-07-23T06:46:19;22.90;99.90
12470;DHT22;36499;46.484;13.832;2022-07-23T06:48:48;23.10;99.90
12470;DHT22;36499;46.484;13.832;2022-07-23T06:51:15;23.20;99.90
12470;DHT22;36499;46.484;13.832;2022-07-23T06:53:42;23.30;99.90
12470;DHT22;36499;46.484;13.832;2022-07-23T06:56:10;23.50;99.90
12470;DHT22;36499;46.484;13.832;2022-07-23T06:58:37;23.50;99.90
12470;DHT22;36499;46.484;13.832;2022-07-23T07:01:04;23.60;99.90
12470;DHT22;36499;46.484;13.832;2022-07-23T07:03:31;23.60;99.90
12470;DHT22;36499;46.484;13.832;2022-07-23T07:05:59;23.70;99.90
12470;DHT22;36499;46.484;13.832;2022-07-23T07:08:27;23.70;99.90
12470;DHT22;36499;46.484;13.832;2022-07-23T07:10:55;23.80;99.90
12470;DHT22;36499;46.484;13.832;2022-07-23T07:13:22;23.90;99.90
12470;DHT22;36499;46.484;13.832;2022-07-23T07:15:49;24.10;99.90
12470;DHT22;36499;46.484;13.832;2022-07-23T07:18:16;24.30;99.90
12470;DHT22;36499;46.484;13.832;2022-07-23T07:20:43;24.40;99.90
12470;DHT22;36499;46.484;13.832;2022-07-23T07:23:12;24.60;99.90
12470;DHT22;36499;46.484;13.832;2022-07-23T07:25:39;24.80;99.90
12470;DHT22;36499;46.484;13.832;2022-07-23T07:28:07;25.00;99.90
12470;DHT22;36499;46.484;13.832;2022-07-23T07:30:34;25.30;99.90
12470;DHT22;36499;46.484;13.832;2022-07-23T07:33:01;25.60;99.90
12470;DHT22;36499;46.484;13.832;2022-07-23T07:35:28;25.90;99.90
12470;DHT22;36499;46.484;13.832;2022-07-23T07:37:56;26.10;99.90
12470;DHT22;36499;46.484;13.832;2022-07-23T07:40:25;26.40;98.10
12470;DHT22;36499;46.484;13.832;2022-07-23T07:42:53;26.50;96.80
12470;DHT22;36499;46.484;13.832;2022-07-23T07:45:23;26.50;95.60
12470;DHT22;36499;46.484;13.832;2022-07-23T07:47:51;26.70;95.40
12470;DHT22;36499;46.484;13.832;2022-07-23T07:50:19;26.40;94.50
12470;DHT22;36499;46.484;13.832;2022-07-23T07:52:47;26.20;95.10
12470;DHT22;36499;46.484;13.832;2022-07-23T07:55:14;26.10;96.10
12470;DHT22;36499;46.484;13.832;2022-07-23T07:57:46;25.90;96.00
12470;DHT22;36499;46.484;13.832;2022-07-23T08:00:16;25.80;95.80
12470;DHT22;36499;46.484;13.832;2022-07-23T08:02:44;25.70;95.10
12470;DHT22;36499;46.484;13.832;2022-07-23T08:05:14;25.60;94.80
12470;DHT22;36499;46.484;13.832;2022-07-23T08:07:41;25.50;93.40
12470;DHT22;36499;46.484;13.832;2022-07-23T08:10:09;25.30;94.40
12470;DHT22;36499;46.484;13.832;2022-07-23T08:12:41;25.20;94.20
12470;DHT22;36499;46.484;13.832;2022-07-23T08:15:12;25.10;95.40
12470;DHT22;36499;46.484;13.832;2022-07-23T08:17:42;25.00;96.30
12470;DHT22;36499;46.484;13.832;2022-07-23T08:20:11;25.00;95.90
12470;DHT22;36499;46.484;13.832;2022-07-23T08:22:47;24.90;96.00
12470;DHT22;36499;46.484;13.832;2022-07-23T08:25:17;24.90;96.70
12470;DHT22;36499;46.484;13.832;2022-07-23T08:27:49;25.00;96.10
12470;DHT22;36499;46.484;13.832;2022-07-23T08:30:17;25.20;95.10
12470;DHT22;36499;46.484;13.832;2022-07-23T08:32:50;25.40;94.90
12470;DHT22;36499;46.484;13.832;2022-07-23T08:35:22;25.40;97.30
12470;DHT22;36499;46.484;13.832;2022-07-23T08:37:51;25.40;97.10
12470;DHT22;36499;46.484;13.832;2022-07-23T08:40:18;25.40;98.30
12470;DHT22;36499;46.484;13.832;2022-07-23T08:42:49;25.30;98.30
12470;DHT22;36499;46.484;13.832;2022-07-23T08:45:19;25.30;98.90
12470;DHT22;36499;46.484;13.832;2022-07-23T08:47:51;25.40;99.10
12470;DHT22;36499;46.484;13.832;2022-07-23T08:50:23;25.50;98.10
12470;DHT22;36499;46.484;13.832;2022-07-23T08:52:51;25.40;96.80
12470;DHT22;36499;46.484;13.832;2022-07-23T08:55:20;25.50;97.50
12470;DHT22;36499;46.484;13.832;2022-07-23T08:57:52;25.60;97.20
12470;DHT22;36499;46.484;13.832;2022-07-23T09:00:21;25.70;97.00
12470;DHT22;36499;46.484;13.832;2022-07-23T09:02:49;26.00;98.20
12470;DHT22;36499;46.484;13.832;2022-07-23T09:05:16;26.20;97.10
12470;DHT22;36499;46.484;13.832;2022-07-23T09:08:03;26.40;96.90
12470;DHT22;36499;46.484;13.832;2022-07-23T09:10:43;26.50;96.50
12470;DHT22;36499;46.484;13.832;2022-07-23T09:13:40;26.50;96.00
12470;DHT22;36499;46.484;13.832;2022-07-23T09:16:11;26.40;95.90
12470;DHT22;36499;46.484;13.832;2022-07-23T09:18:43;26.40;97.20
12470;DHT22;36499;46.484;13.832;2022-07-23T09:21:19;26.30;96.10
12470;DHT22;36499;46.484;13.832;2022-07-23T09:23:52;26.30;95.60
12470;DHT22;36499;46.484;13.832;2022-07-23T09:26:25;26.40;95.90
12470;DHT22;36499;46.484;13.832;2022-07-23T09:29:00;26.70;96.30
12470;DHT22;36499;46.484;13.832;2022-07-23T09:31:34;26.80;95.70
12470;DHT22;36499;46.484;13.832;2022-07-23T09:34:11;26.90;94.60
12470;DHT22;36499;46.484;13.832;2022-07-23T09:36:41;27.00;94.50
12470;DHT22;36499;46.484;13.832;2022-07-23T09:39:10;27.10;94.40
12470;DHT22;36499;46.484;13.832;2022-07-23T09:41:40;27.20;94.20
12470;DHT22;36499;46.484;13.832;2022-07-23T09:44:13;27.40;94.30
12470;DHT22;36499;46.484;13.832;2022-07-23T09:46:43;27.60;92.10
12470;DHT22;36499;46.484;13.832;2022-07-23T09:49:17;27.70;92.50
12470;DHT22;36499;46.484;13.832;2022-07-23T09:51:49;27.70;91.70
12470;DHT22;36499;46.484;13.832;2022-07-23T09:54:30;27.70;90.50
12470;DHT22;36499;46.484;13.832;2022-07-23T09:57:02;27.80;90.80
12470;DHT22;36499;46.484;13.832;2022-07-23T09:59:37;27.80;90.00
12470;DHT22;36499;46.484;13.832;2022-07-23T10:02:07;27.90;87.90
12470;DHT22;36499;46.484;13.832;2022-07-23T10:04:36;28.10;90.00
12470;DHT22;36499;46.484;13.832;2022-07-23T10:07:04;28.10;87.20
12470;DHT22;36499;46.484;13.832;2022-07-23T10:09:36;28.10;88.80
12470;DHT22;36499;46.484;13.832;2022-07-23T10:12:09;28.20;87.80
12470;DHT22;36499;46.484;13.832;2022-07-23T10:14:49;28.30;88.00
12470;DHT22;36499;46.484;13.832;2022-07-23T10:17:17;28.40;86.60
12470;DHT22;36499;46.484;13.832;2022-07-23T10:19:45;28.30;85.40
12470;DHT22;36499;46.484;13.832;2022-07-23T10:22:14;28.40;88.40
12470;DHT22;36499;46.484;13.832;2022-07-23T10:25:10;28.50;85.50
12470;DHT22;36499;46.484;13.832;2022-07-23T10:28:15;28.60;85.40
12470;DHT22;36499;46.484;13.832;2022-07-23T10:31:01;28.70;85.50
12470;DHT22;36499;46.484;13.832;2022-07-23T10:33:41;28.90;85.70
12470;DHT22;36499;46.484;13.832;2022-07-23T10:36:22;28.90;85.10
12470;DHT22;36499;46.484;13.832;2022-07-23T10:38:58;29.00;85.70
12470;DHT22;36499;46.484;13.832;2022-07-23T10:41:38;29.10;85.10
12470;DHT22;36499;46.484;13.832;2022-07-23T10:44:08;29.40;85.70
12470;DHT22;36499;46.484;13.832;2022-07-23T10:46:54;29.60;84.60
12470;DHT22;36499;46.484;13.832;2022-07-23T10:49:37;29.80;83.60
12470;DHT22;36499;46.484;13.832;2022-07-23T10:52:22;29.90;83.80
12470;DHT22;36499;46.484;13.832;2022-07-23T10:54:52;30.10;81.50
12470;DHT22;36499;46.484;13.832;2022-07-23T10:57:21;30.20;81.30
12470;DHT22;36499;46.484;13.832;2022-07-23T11:00:09;30.00;78.70
12470;DHT22;36499;46.484;13.832;2022-07-23T11:02:41;30.00;79.70
12470;DHT22;36499;46.484;13.832;2022-07-23T11:05:12;30.00;80.00
12470;DHT22;36499;46.484;13.832;2022-07-23T11:08:12;30.00;80.30
12470;DHT22;36499;46.484;13.832;2022-07-23T11:10:44;29.90;81.10
12470;DHT22;36499;46.484;13.832;2022-07-23T11:13:29;29.80;79.80
12470;DHT22;36499;46.484;13.832;2022-07-23T11:19:00;30.00;80.90
12470;DHT22;36499;46.484;13.832;2022-07-23T11:21:52;30.10;83.20
12470;DHT22;36499;46.484;13.832;2022-07-23T11:24:21;29.90;80.70
12470;DHT22;36499;46.484;13.832;2022-07-23T11:27:00;29.60;82.60
12470;DHT22;36499;46.484;13.832;2022-07-23T11:29:48;29.50;82.80
12470;DHT22;36499;46.484;13.832;2022-07-23T11:32:22;29.30;82.90
12470;DHT22;36499;46.484;13.832;2022-07-23T11:34:52;29.20;83.80
12470;DHT22;36499;46.484;13.832;2022-07-23T11:37:35;29.20;85.50
12470;DHT22;36499;46.484;13.832;2022-07-23T11:40:07;29.20;85.30
12470;DHT22;36499;46.484;13.832;2022-07-23T11:42:37;29.20;83.90
12470;DHT22;36499;46.484;13.832;2022-07-23T11:45:07;29.10;85.00
12470;DHT22;36499;46.484;13.832;2022-07-23T11:47:35;29.00;84.70
12470;DHT22;36499;46.484;13.832;2022-07-23T11:50:06;29.00;84.80
12470;DHT22;36499;46.484;13.832;2022-07-23T11:52:34;29.00;85.90
12470;DHT22;36499;46.484;13.832;2022-07-23T11:55:04;29.10;86.10
12470;DHT22;36499;46.484;13.832;2022-07-23T11:57:35;29.30;85.30
12470;DHT22;36499;46.484;13.832;2022-07-23T12:00:06;29.50;84.10
12470;DHT22;36499;46.484;13.832;2022-07-23T12:02:36;29.60;82.60
12470;DHT22;36499;46.484;13.832;2022-07-23T12:05:07;29.50;81.50
12470;DHT22;36499;46.484;13.832;2022-07-23T12:07:36;29.50;82.30
12470;DHT22;36499;46.484;13.832;2022-07-23T12:10:10;29.50;82.20
12470;DHT22;36499;46.484;13.832;2022-07-23T12:12:41;29.70;81.60
12470;DHT22;36499;46.484;13.832;2022-07-23T12:15:10;29.90;83.60
12470;DHT22;36499;46.484;13.832;2022-07-23T12:17:40;30.10;83.30
12470;DHT22;36499;46.484;13.832;2022-07-23T12:20:13;30.20;81.60
12470;DHT22;36499;46.484;13.832;2022-07-23T12:22:44;30.20;80.60
12470;DHT22;36499;46.484;13.832;2022-07-23T12:25:14;30.30;80.30
12470;DHT22;36499;46.484;13.832;2022-07-23T12:27:43;30.50;80.50
12470;DHT22;36499;46.484;13.832;2022-07-23T12:30:19;30.60;77.20
12470;DHT22;36499;46.484;13.832;2022-07-23T12:32:50;30.80;78.40
12470;DHT22;36499;46.484;13.832;2022-07-23T12:35:21;30.80;77.20
12470;DHT22;36499;46.484;13.832;2022-07-23T12:37:51;31.00;77.80
12470;DHT22;36499;46.484;13.832;2022-07-23T12:40:28;31.40;76.90
12470;DHT22;36499;46.484;13.832;2022-07-23T12:43:00;31.60;75.80
12470;DHT22;36499;46.484;13.832;2022-07-23T12:45:43;31.70;76.20
12470;DHT22;36499;46.484;13.832;2022-07-23T12:48:26;31.90;73.70
12470;DHT22;36499;46.484;13.832;2022-07-23T12:50:57;31.80;71.70
12470;DHT22;36499;46.484;13.832;2022-07-23T12:53:28;31.90;74.90
12470;DHT22;36499;46.484;13.832;2022-07-23T12:56:00;32.00;73.50
12470;DHT22;36499;46.484;13.832;2022-07-23T12:58:40;32.10;71.10
12470;DHT22;36499;46.484;13.832;2022-07-23T13:01:21;32.10;71.10
12470;DHT22;36499;46.484;13.832;2022-07-23T13:03:56;32.00;72.30
12470;DHT22;36499;46.484;13.832;2022-07-23T13:06:28;32.20;72.10
12470;DHT22;36499;46.484;13.832;2022-07-23T13:08:56;32.30;70.90
12470;DHT22;36499;46.484;13.832;2022-07-23T13:11:24;32.30;68.10
12470;DHT22;36499;46.484;13.832;2022-07-23T13:13:51;32.40;70.70
12470;DHT22;36499;46.484;13.832;2022-07-23T13:16:18;32.60;68.70
12470;DHT22;36499;46.484;13.832;2022-07-23T13:18:46;32.60;68.70
12470;DHT22;36499;46.484;13.832;2022-07-23T13:21:13;32.70;67.90
12470;DHT22;36499;46.484;13.832;2022-07-23T13:23:42;32.80;70.30
12470;DHT22;36499;46.484;13.832;2022-07-23T13:26:09;33.00;67.20
12470;DHT22;36499;46.484;13.832;2022-07-23T13:28:37;33.00;64.30
12470;DHT22;36499;46.484;13.832;2022-07-23T13:31:04;33.10;62.40
12470;DHT22;36499;46.484;13.832;2022-07-23T13:33:32;33.20;56.60
12470;DHT22;36499;46.484;13.832;2022-07-23T13:35:59;33.20;56.00
12470;DHT22;36499;46.484;13.832;2022-07-23T13:38:27;33.30;59.30
12470;DHT22;36499;46.484;13.832;2022-07-23T13:40:56;33.50;55.90
12470;DHT22;36499;46.484;13.832;2022-07-23T13:43:25;33.70;53.00
12470;DHT22;36499;46.484;13.832;2022-07-23T13:45:52;33.60;50.80
12470;DHT22;36499;46.484;13.832;2022-07-23T13:48:20;33.20;48.90
12470;DHT22;36499;46.484;13.832;2022-07-23T13:50:49;33.00;47.70
12470;DHT22;36499;46.484;13.832;2022-07-23T13:53:18;33.10;48.70
12470;DHT22;36499;46.484;13.832;2022-07-23T13:55:49;33.20;48.70
12470;DHT22;36499;46.484;13.832;2022-07-23T13:58:18;33.10;46.80
12470;DHT22;36499;46.484;13.832;2022-07-23T14:00:47;33.10;49.90
12470;DHT22;36499;46.484;13.832;2022-07-23T14:03:17;33.20;48.70
12470;DHT22;36499;46.484;13.832;2022-07-23T14:05:47;33.30;47.60
12470;DHT22;36499;46.484;13.832;2022-07-23T14:08:15;33.20;46.00
12470;DHT22;36499;46.484;13.832;2022-07-23T14:10:42;33.20;46.60
12470;DHT22;36499;46.484;13.832;2022-07-23T14:13:09;33.10;47.30
12470;DHT22;36499;46.484;13.832;2022-07-23T14:15:38;33.00;47.60
12470;DHT22;36499;46.484;13.832;2022-07-23T14:18:06;32.90;45.90
12470;DHT22;36499;46.484;13.832;2022-07-23T14:20:34;32.90;45.40
12470;DHT22;36499;46.484;13.832;2022-07-23T14:23:01;33.00;47.60
12470;DHT22;36499;46.484;13.832;2022-07-23T14:25:28;33.20;45.20
12470;DHT22;36499;46.484;13.832;2022-07-23T14:27:55;33.20;45.70
12470;DHT22;36499;46.484;13.832;2022-07-23T14:30:23;33.20;45.60
12470;DHT22;36499;46.484;13.832;2022-07-23T14:32:51;33.20;46.00
12470;DHT22;36499;46.484;13.832;2022-07-23T14:35:19;33.30;46.30
12470;DHT22;36499;46.484;13.832;2022-07-23T14:37:46;33.20;46.20
12470;DHT22;36499;46.484;13.832;2022-07-23T14:40:13;33.30;49.60
12470;DHT22;36499;46.484;13.832;2022-07-23T14:42:40;33.50;47.00
12470;DHT22;36499;46.484;13.832;2022-07-23T14:45:08;33.50;44.40
12470;DHT22;36499;46.484;13.832;2022-07-23T14:47:35;33.50;43.70
12470;DHT22;36499;46.484;13.832;2022-07-23T14:50:05;33.70;44.60
12470;DHT22;36499;46.484;13.832;2022-07-23T14:52:34;33.80;45.90
12470;DHT22;36499;46.484;13.832;2022-07-23T14:55:01;33.90;44.60
12470;DHT22;36499;46.484;13.832;2022-07-23T14:57:29;33.80;43.10
12470;DHT22;36499;46.484;13.832;2022-07-23T14:59:56;34.00;42.10
12470;DHT22;36499;46.484;13.832;2022-07-23T15:02:25;34.00;43.40
12470;DHT22;36499;46.484;13.832;2022-07-23T15:04:52;33.90;45.30
12470;DHT22;36499;46.484;13.832;2022-07-23T15:07:21;33.80;46.00
12470;DHT22;36499;46.484;13.832;2022-07-23T15:09:48;33.80;45.60
12470;DHT22;36499;46.484;13.832;2022-07-23T15:12:15;33.90;43.30
12470;DHT22;36499;46.484;13.832;2022-07-23T15:14:42;33.90;43.30
12470;DHT22;36499;46.484;13.832;2022-07-23T15:17:10;33.90;42.50
12470;DHT22;36499;46.484;13.832;2022-07-23T15:19:39;33.80;41.90
12470;DHT22;36499;46.484;13.832;2022-07-23T15:22:06;33.80;43.30
12470;DHT22;36499;46.484;13.832;2022-07-23T15:24:34;33.70;41.30
12470;DHT22;36499;46.484;13.832;2022-07-23T15:27:02;33.70;41.10
12470;DHT22;36499;46.484;13.832;2022-07-23T15:29:29;33.80;41.50
12470;DHT22;36499;46.484;13.832;2022-07-23T15:31:56;33.90;42.40
12470;DHT22;36499;46.484;13.832;2022-07-23T15:34:24;33.90;41.20
12470;DHT22;36499;46.484;13.832;2022-07-23T15:36:51;33.90;42.00